If you wish to contribute or participate in the discussions about articles you are invited to join SKYbrary as a registered user

 Actions

Port Said Airport

From SKYbrary Wiki

HEPS
Airport
ICAO: HEPS – IATA: PSD
Summary
Name Port Said Airport
Region Africa
Territory Egypt EG.gif
Location Port Said, Ash Sharqiyah
Serving Port Said
Elevation 2.438 m
8 ft
8 ft2.438 m
Type medium airport
Coordinates 31° 16' 46.00" N, 32° 14' 24.00" E
Runways
Designator Length Width Surface ROPS
10/28 2349 m7,706.693 ft
45 m147.638 ft
ASP /


METAR
Observation HEPS 201200Z 06010KT CAVOK 23/13 Q1017 NOSIG
Station Port Said
Date/Time 20 November 2019 12:00:00
Wind direction 60°
Wind speed 10 kts
Lowest cloud amount clouds and visibility OK
Temperature 23°C
Dew point 13°C
Humidity 53%
QNH 1017 hPa
Weather condition n/a

Maps

Terrain

Loading map...

Airport Layout

Loading map...


Accidents & Serious Incidents at or in vicinity of HEPS

None on SKYbrary